Time;durP1;ratioP1;P1;durP2;ratioP2;P2;SDS_P1;SDS_P2;PMS_P1;PMS_P2;Temp;Humidity;BMP_temperature;BMP_pressure;BME280_temperature;BME280_humidity;BME280_pressure;Samples;Min_cycle;Max_cycle;Signal;HPM_P1;HPM_P2
2023/11/03 00:02:20;;;;;;;2.30;0.40;;;;;;;;;;5113567;28;20412;-88
2023/11/03 00:04:46;;;;;;;2.20;0.40;;;;;;;;;;5123184;28;20419;-89
2023/11/03 00:07:13;;;;;;;4.77;0.33;;;;;;;;;;5135316;28;20454;-88
2023/11/03 00:09:40;;;;;;;2.27;0.40;;;;;;;;;;5135705;28;20455;-92
2023/11/03 00:12:06;;;;;;;2.53;0.30;;;;;;;;;;5135161;28;20402;-82
2023/11/03 00:14:33;;;;;;;3.20;0.30;;;;;;;;;;5135553;28;20465;-89
2023/11/03 00:16:59;;;;;;;6.23;0.77;;;;;;;;;;5133997;28;20520;-89
2023/11/03 00:19:25;;;;;;;4.80;0.67;;;;;;;;;;5116644;28;20423;-86
2023/11/03 00:21:51;;;;;;;4.27;0.60;;;;;;;;;;5116332;28;20774;-94
2023/11/03 00:24:17;;;;;;;0.70;0.20;;;;;;;;;;5117011;28;20413;-93
2023/11/03 00:26:44;;;;;;;1.30;0.20;;;;;;;;;;5134768;28;21017;-91
2023/11/03 00:29:10;;;;;;;2.00;0.20;;;;;;;;;;5135291;28;20181;-87
2023/11/03 00:31:36;;;;;;;2.97;0.30;;;;;;;;;;5134044;28;20412;-91
2023/11/03 00:34:05;;;;;;;3.80;0.37;;;;;;;;;;5133902;28;20779;-86
2023/11/03 00:36:31;;;;;;;4.87;0.30;;;;;;;;;;5134336;28;20434;-81
2023/11/03 00:38:58;;;;;;;11.07;0.50;;;;;;;;;;5134587;28;20498;-93
2023/11/03 00:41:24;;;;;;;3.00;0.30;;;;;;;;;;5134298;28;20431;-82
2023/11/03 00:43:50;;;;;;;3.03;0.43;;;;;;;;;;5134201;28;20410;-89
2023/11/03 00:46:17;;;;;;;3.00;0.50;;;;;;;;;;5134042;28;20410;-83
2023/11/03 00:48:43;;;;;;;1.90;0.20;;;;;;;;;;5134279;27;20583;-83
2023/11/03 00:51:10;;;;;;;3.67;0.40;;;;;;;;;;5137968;27;20403;-84
2023/11/03 00:53:36;;;;;;;4.60;0.20;;;;;;;;;;5137405;27;20414;-81
2023/11/03 00:56:04;;;;;;;3.13;0.40;;;;;;;;;;5118662;27;20419;-83
2023/11/03 00:58:30;;;;;;;6.13;0.50;;;;;;;;;;5137086;27;20169;-86
2023/11/03 01:00:56;;;;;;;1.43;0.20;;;;;;;;;;5137154;27;20968;-83
2023/11/03 01:03:23;;;;;;;1.57;0.80;;;;;;;;;;5135757;27;20414;-81
2023/11/03 01:05:49;;;;;;;6.10;0.20;;;;;;;;;;5135591;27;20414;-84
2023/11/03 01:08:15;;;;;;;0.93;0.40;;;;;;;;;;5136275;27;20984;-81
2023/11/03 01:10:41;;;;;;;3.50;0.40;;;;;;;;;;5136356;27;20414;-79
2023/11/03 01:13:10;;;;;;;3.70;0.30;;;;;;;;;;5117535;27;20434;-82
2023/11/03 01:15:36;;;;;;;2.30;0.30;;;;;;;;;;5136310;27;20418;-82
2023/11/03 01:18:04;;;;;;;2.70;0.30;;;;;;;;;;5136569;27;20468;-92
2023/11/03 01:20:30;;;;;;;2.27;0.33;;;;;;;;;;5136598;27;20421;-80
2023/11/03 01:22:56;;;;;;;5.47;0.70;;;;;;;;;;5136433;27;20500;-81
2023/11/03 01:25:22;;;;;;;2.07;0.70;;;;;;;;;;5136256;27;20410;-80
2023/11/03 01:27:50;;;;;;;5.00;0.50;;;;;;;;;;5136221;27;20473;-79
2023/11/03 01:30:17;;;;;;;2.20;0.50;;;;;;;;;;5135869;27;20409;-81
2023/11/03 01:32:43;;;;;;;4.40;0.20;;;;;;;;;;5136198;27;20412;-85
2023/11/03 01:35:09;;;;;;;1.83;0.20;;;;;;;;;;5135217;27;20844;-80
2023/11/03 01:37:36;;;;;;;2.40;0.47;;;;;;;;;;5135960;27;20421;-78
2023/11/03 01:40:08;;;;;;;4.03;0.60;;;;;;;;;;5136057;27;20481;-79
2023/11/03 01:42:35;;;;;;;5.00;0.30;;;;;;;;;;5136098;27;20814;-80
2023/11/03 01:45:01;;;;;;;1.47;0.40;;;;;;;;;;5135393;27;20410;-83
2023/11/03 01:47:27;;;;;;;3.00;1.27;;;;;;;;;;5135773;27;20478;-82
2023/11/03 01:49:53;;;;;;;1.80;0.30;;;;;;;;;;5135653;27;20426;-80
2023/11/03 01:52:19;;;;;;;3.90;0.40;;;;;;;;;;5136097;27;20411;-80
2023/11/03 01:54:45;;;;;;;2.93;0.23;;;;;;;;;;5133198;27;20415;-80
2023/11/03 01:57:11;;;;;;;4.00;0.20;;;;;;;;;;5101276;27;20801;-81
2023/11/03 01:59:37;;;;;;;5.07;0.40;;;;;;;;;;5135505;27;20414;-82
2023/11/03 02:02:04;;;;;;;3.30;0.40;;;;;;;;;;5135746;27;20448;-81
2023/11/03 02:04:30;;;;;;;4.87;0.30;;;;;;;;;;5117563;27;20401;-79
2023/11/03 02:06:56;;;;;;;2.17;0.40;;;;;;;;;;5135713;27;20708;-81
2023/11/03 02:09:22;;;;;;;1.80;0.23;;;;;;;;;;5135949;27;20410;-84
2023/11/03 02:11:48;;;;;;;2.10;0.20;;;;;;;;;;5135819;27;20773;-80
2023/11/03 02:14:14;;;;;;;0.93;0.30;;;;;;;;;;5135823;27;20410;-81
2023/11/03 02:16:41;;;;;;;2.70;0.30;;;;;;;;;;5135400;27;20432;-81
2023/11/03 02:19:10;;;;;;;2.93;0.30;;;;;;;;;;5135668;27;20416;-79
2023/11/03 02:21:36;;;;;;;3.63;0.30;;;;;;;;;;5135562;27;20991;-80
2023/11/03 02:24:04;;;;;;;2.30;0.93;;;;;;;;;;5117167;27;20520;-80
2023/11/03 02:26:29;;;;;;;4.73;1.10;;;;;;;;;;5135521;27;20415;-90
2023/11/03 02:28:55;;;;;;;9.37;1.17;;;;;;;;;;5116907;27;20486;-80
2023/11/03 02:31:21;;;;;;;0.90;0.30;;;;;;;;;;5134938;27;20540;-79
2023/11/03 02:33:48;;;;;;;1.83;0.60;;;;;;;;;;5116894;27;20172;-82
2023/11/03 02:36:14;;;;;;;3.23;0.40;;;;;;;;;;5135458;27;20199;-85
2023/11/03 02:38:40;;;;;;;2.80;0.50;;;;;;;;;;5135268;27;20906;-80
2023/11/03 02:41:06;;;;;;;2.50;0.40;;;;;;;;;;5135119;27;20414;-80
2023/11/03 02:43:31;;;;;;;1.50;0.40;;;;;;;;;;5135139;27;20501;-79
2023/11/03 02:45:57;;;;;;;8.03;0.60;;;;;;;;;;5134663;27;20430;-81
2023/11/03 02:48:23;;;;;;;4.33;0.40;;;;;;;;;;5117917;27;20480;-89
2023/11/03 02:50:49;;;;;;;2.70;0.60;;;;;;;;;;5114562;28;20402;-79
2023/11/03 02:53:15;;;;;;;4.73;1.37;;;;;;;;;;5122228;27;20188;-80
2023/11/03 02:55:41;;;;;;;4.00;0.30;;;;;;;;;;5136079;27;20170;-81
2023/11/03 02:58:07;;;;;;;2.40;2.00;;;;;;;;;;5118092;27;20918;-84
2023/11/03 03:00:35;;;;;;;7.97;0.70;;;;;;;;;;5134968;27;20747;-80
2023/11/03 03:03:01;;;;;;;4.83;0.80;;;;;;;;;;5135032;27;20442;-80
2023/11/03 03:05:27;;;;;;;2.33;0.20;;;;;;;;;;5117069;27;20452;-83
2023/11/03 03:07:54;;;;;;;3.00;0.57;;;;;;;;;;5135182;27;20469;-84
2023/11/03 03:10:20;;;;;;;2.40;0.20;;;;;;;;;;5136021;27;20757;-80
2023/11/03 03:12:47;;;;;;;1.27;0.20;;;;;;;;;;5135227;27;20421;-80
2023/11/03 03:15:13;;;;;;;5.47;0.77;;;;;;;;;;5116364;27;20440;-85
2023/11/03 03:17:39;;;;;;;2.70;0.40;;;;;;;;;;5134517;27;20411;-88
2023/11/03 03:20:06;;;;;;;5.47;0.63;;;;;;;;;;5134573;27;20950;-80
2023/11/03 03:22:32;;;;;;;3.50;0.50;;;;;;;;;;5134867;27;20928;-83
2023/11/03 03:24:58;;;;;;;6.53;0.87;;;;;;;;;;5134622;27;20406;-78
2023/11/03 03:27:23;;;;;;;3.50;0.30;;;;;;;;;;5134264;27;20474;-88
2023/11/03 03:29:49;;;;;;;2.00;0.40;;;;;;;;;;5133996;27;20431;-79
2023/11/03 03:32:15;;;;;;;1.70;0.30;;;;;;;;;;5134438;27;20917;-80
2023/11/03 03:34:41;;;;;;;1.50;0.23;;;;;;;;;;5134434;27;20251;-78
2023/11/03 03:37:07;;;;;;;3.60;0.60;;;;;;;;;;5134178;27;20191;-81
2023/11/03 03:39:33;;;;;;;0.80;0.10;;;;;;;;;;5134777;27;20172;-86
2023/11/03 03:41:59;;;;;;;1.40;0.50;;;;;;;;;;5120423;27;20450;-80
2023/11/03 03:44:25;;;;;;;1.27;0.20;;;;;;;;;;5113595;28;20407;-80
2023/11/03 03:46:51;;;;;;;1.40;0.30;;;;;;;;;;5113272;28;20918;-82
2023/11/03 03:49:17;;;;;;;4.43;0.40;;;;;;;;;;5113604;28;20411;-82
2023/11/03 03:51:43;;;;;;;4.40;0.50;;;;;;;;;;5113721;28;20401;-83
2023/11/03 03:54:09;;;;;;;2.57;0.47;;;;;;;;;;5113679;28;20414;-80
2023/11/03 03:56:35;;;;;;;2.50;0.30;;;;;;;;;;5113424;28;20888;-83
2023/11/03 03:59:01;;;;;;;4.30;0.30;;;;;;;;;;5113307;28;20195;-80
2023/11/03 04:01:27;;;;;;;5.60;0.77;;;;;;;;;;5112955;28;20480;-81
2023/11/03 04:03:53;;;;;;;4.30;0.50;;;;;;;;;;5113462;28;20482;-80
2023/11/03 04:06:19;;;;;;;3.40;0.57;;;;;;;;;;5113193;28;20480;-80
2023/11/03 04:08:45;;;;;;;2.30;0.63;;;;;;;;;;5113406;28;20493;-82
2023/11/03 04:11:12;;;;;;;5.20;0.77;;;;;;;;;;5113331;28;20457;-79
2023/11/03 04:13:38;;;;;;;3.00;0.20;;;;;;;;;;5113456;28;20582;-82
2023/11/03 04:16:08;;;;;;;2.33;0.50;;;;;;;;;;5112987;28;20433;-84
2023/11/03 04:18:34;;;;;;;2.50;0.20;;;;;;;;;;5113462;28;20483;-84
2023/11/03 04:21:00;;;;;;;3.10;0.30;;;;;;;;;;5113189;28;20791;-81
2023/11/03 04:23:26;;;;;;;0.90;0.30;;;;;;;;;;5117471;28;20440;-79
2023/11/03 04:25:53;;;;;;;2.53;0.40;;;;;;;;;;5137339;27;20451;-81
2023/11/03 04:28:19;;;;;;;2.30;0.37;;;;;;;;;;5137737;27;20659;-81
2023/11/03 04:30:45;;;;;;;2.80;0.80;;;;;;;;;;5137493;27;20408;-86
2023/11/03 04:33:14;;;;;;;2.60;0.33;;;;;;;;;;5137854;27;20421;-88
2023/11/03 04:35:41;;;;;;;4.00;0.40;;;;;;;;;;5137753;27;20419;-90
2023/11/03 04:38:09;;;;;;;6.53;0.60;;;;;;;;;;5137718;27;20409;-83
2023/11/03 04:40:35;;;;;;;3.67;0.30;;;;;;;;;;5137722;27;20410;-80
2023/11/03 04:43:01;;;;;;;7.50;0.70;;;;;;;;;;5137413;27;20899;-83
2023/11/03 04:45:27;;;;;;;2.50;0.40;;;;;;;;;;5137155;27;20416;-87
2023/11/03 04:47:53;;;;;;;3.33;0.30;;;;;;;;;;5137224;27;20872;-83
2023/11/03 04:50:19;;;;;;;4.27;0.30;;;;;;;;;;5137598;27;20934;-83
2023/11/03 04:52:45;;;;;;;5.43;0.20;;;;;;;;;;5137458;27;20413;-82
2023/11/03 04:55:12;;;;;;;2.80;0.73;;;;;;;;;;5137310;27;20488;-79
2023/11/03 04:57:39;;;;;;;5.03;0.70;;;;;;;;;;5137264;27;20501;-86
2023/11/03 05:00:09;;;;;;;3.53;0.83;;;;;;;;;;5136831;27;20412;-80
2023/11/03 05:02:35;;;;;;;2.27;0.53;;;;;;;;;;5137150;27;20609;-82
2023/11/03 05:05:04;;;;;;;2.50;0.67;;;;;;;;;;5137038;27;20402;-80
2023/11/03 05:07:30;;;;;;;2.30;0.40;;;;;;;;;;5137083;27;20511;-81
2023/11/03 05:09:57;;;;;;;4.13;0.40;;;;;;;;;;5136950;27;20764;-81
2023/11/03 05:12:22;;;;;;;1.97;0.60;;;;;;;;;;5135512;27;20405;-80
2023/11/03 05:14:49;;;;;;;2.73;0.70;;;;;;;;;;5135716;27;20451;-80
2023/11/03 05:17:15;;;;;;;4.37;0.70;;;;;;;;;;5136375;27;20492;-85
2023/11/03 05:19:41;;;;;;;2.60;0.40;;;;;;;;;;5136416;27;20438;-80
2023/11/03 05:22:07;;;;;;;6.50;0.83;;;;;;;;;;5136359;27;20978;-81
2023/11/03 05:24:33;;;;;;;3.67;0.40;;;;;;;;;;5136263;27;20175;-84
2023/11/03 05:26:59;;;;;;;4.23;0.40;;;;;;;;;;5136006;27;20476;-82
2023/11/03 05:29:25;;;;;;;4.10;0.37;;;;;;;;;;5136157;27;20935;-87
2023/11/03 05:31:52;;;;;;;4.20;0.70;;;;;;;;;;5118188;27;20429;-82
2023/11/03 05:34:18;;;;;;;4.20;0.30;;;;;;;;;;5136163;27;20458;-83
2023/11/03 05:36:45;;;;;;;3.20;0.70;;;;;;;;;;5135712;27;20446;-84
2023/11/03 05:39:12;;;;;;;6.33;0.57;;;;;;;;;;5136123;27;20496;-84
2023/11/03 05:41:38;;;;;;;2.73;0.40;;;;;;;;;;5133296;27;20409;-84
2023/11/03 05:44:04;;;;;;;3.90;0.33;;;;;;;;;;5116877;27;21123;-81
2023/11/03 05:46:30;;;;;;;4.00;0.40;;;;;;;;;;5135071;27;20894;-81
2023/11/03 05:48:56;;;;;;;3.57;0.43;;;;;;;;;;5117226;27;20456;-83
2023/11/03 05:51:23;;;;;;;8.10;0.73;;;;;;;;;;5136028;27;20415;-82
2023/11/03 05:53:49;;;;;;;5.00;0.70;;;;;;;;;;5135813;27;20414;-81
2023/11/03 05:56:15;;;;;;;3.23;0.40;;;;;;;;;;5135675;27;20411;-79
2023/11/03 05:58:41;;;;;;;4.10;0.50;;;;;;;;;;5135538;27;20415;-80
2023/11/03 06:01:07;;;;;;;2.50;0.43;;;;;;;;;;5134035;27;20421;-78
2023/11/03 06:03:37;;;;;;;2.60;0.60;;;;;;;;;;5134473;27;20424;-78
2023/11/03 06:06:06;;;;;;;5.10;0.40;;;;;;;;;;5135123;27;20830;-79
2023/11/03 06:08:32;;;;;;;3.50;0.60;;;;;;;;;;5135307;27;20528;-78
2023/11/03 06:10:58;;;;;;;2.80;1.03;;;;;;;;;;5117276;27;20401;-81
2023/11/03 06:13:24;;;;;;;4.60;1.10;;;;;;;;;;5135757;27;20421;-80
2023/11/03 06:15:50;;;;;;;10.33;1.20;;;;;;;;;;5135042;27;20415;-78
2023/11/03 06:18:16;;;;;;;1.83;0.60;;;;;;;;;;5135348;27;20408;-79
2023/11/03 06:20:42;;;;;;;5.80;0.63;;;;;;;;;;5135709;27;20414;-78
2023/11/03 06:23:08;;;;;;;3.93;0.27;;;;;;;;;;5135577;27;20421;-80
2023/11/03 06:25:34;;;;;;;6.30;0.60;;;;;;;;;;5135372;27;20452;-82
2023/11/03 06:28:00;;;;;;;4.53;0.60;;;;;;;;;;5135665;27;20968;-82
2023/11/03 06:30:26;;;;;;;2.73;0.30;;;;;;;;;;5134772;27;20449;-82
2023/11/03 06:32:52;;;;;;;3.90;0.93;;;;;;;;;;5135156;27;20452;-86
2023/11/03 06:35:18;;;;;;;2.87;0.30;;;;;;;;;;5135199;27;20416;-82
2023/11/03 06:37:44;;;;;;;5.43;0.60;;;;;;;;;;5134774;27;20415;-81
2023/11/03 06:40:11;;;;;;;1.57;0.40;;;;;;;;;;5134449;27;20501;-86
2023/11/03 06:42:38;;;;;;;7.73;1.23;;;;;;;;;;5134627;27;20435;-86
2023/11/03 06:45:06;;;;;;;3.40;0.30;;;;;;;;;;5134387;27;21015;-85
2023/11/03 06:47:32;;;;;;;3.37;0.60;;;;;;;;;;5133397;27;20487;-81
2023/11/03 06:49:59;;;;;;;4.50;0.80;;;;;;;;;;5132401;27;20401;-85
2023/11/03 06:52:25;;;;;;;6.07;0.40;;;;;;;;;;5134503;27;20950;-78
2023/11/03 06:54:51;;;;;;;6.50;1.70;;;;;;;;;;5134658;27;20398;-78
2023/11/03 06:57:17;;;;;;;5.53;0.40;;;;;;;;;;5134463;27;20190;-82
2023/11/03 06:59:43;;;;;;;3.80;1.03;;;;;;;;;;5116533;27;20906;-84
2023/11/03 07:02:09;;;;;;;3.70;0.67;;;;;;;;;;5134825;27;20467;-85
2023/11/03 07:04:35;;;;;;;3.83;0.83;;;;;;;;;;5134481;27;20802;-79
2023/11/03 07:07:02;;;;;;;8.07;0.53;;;;;;;;;;5134272;27;20461;-82
2023/11/03 07:09:28;;;;;;;5.47;0.77;;;;;;;;;;5134315;27;20779;-78
2023/11/03 07:11:54;;;;;;;4.10;2.10;;;;;;;;;;5134174;27;20422;-77
2023/11/03 07:14:21;;;;;;;3.27;0.53;;;;;;;;;;5133839;27;20431;-76
2023/11/03 07:16:48;;;;;;;5.57;2.00;;;;;;;;;;5134139;27;20914;-78
2023/11/03 07:19:14;;;;;;;3.73;0.50;;;;;;;;;;5134004;27;20406;-78
2023/11/03 07:21:40;;;;;;;8.60;0.90;;;;;;;;;;5134131;27;20775;-79
2023/11/03 07:24:08;;;;;;;2.63;0.50;;;;;;;;;;5134168;27;20410;-78
2023/11/03 07:26:34;;;;;;;4.40;0.47;;;;;;;;;;5134285;27;20407;-77
2023/11/03 07:29:00;;;;;;;4.90;0.30;;;;;;;;;;5134057;27;20503;-78
2023/11/03 07:31:26;;;;;;;2.20;0.40;;;;;;;;;;5134227;27;20196;-78
2023/11/03 07:33:54;;;;;;;2.10;0.30;;;;;;;;;;5134300;27;20175;-77
2023/11/03 07:36:21;;;;;;;3.87;0.37;;;;;;;;;;5134395;27;20209;-79
2023/11/03 07:38:47;;;;;;;4.87;0.60;;;;;;;;;;5134358;27;20419;-78
2023/11/03 07:41:13;;;;;;;4.47;0.63;;;;;;;;;;5134114;27;20417;-78
2023/11/03 07:43:39;;;;;;;2.47;0.40;;;;;;;;;;5133880;27;20405;-78
2023/11/03 07:46:05;;;;;;;9.93;0.57;;;;;;;;;;5133737;27;20457;-79
2023/11/03 07:48:31;;;;;;;4.87;0.60;;;;;;;;;;5133721;27;20880;-78
2023/11/03 07:50:57;;;;;;;6.03;0.30;;;;;;;;;;5115721;27;20433;-78
2023/11/03 07:53:23;;;;;;;3.23;0.70;;;;;;;;;;5134066;27;20894;-78
2023/11/03 07:55:49;;;;;;;2.77;0.70;;;;;;;;;;5134137;28;20167;-78
2023/11/03 07:58:15;;;;;;;4.00;0.60;;;;;;;;;;5133870;27;20528;-78
2023/11/03 08:00:41;;;;;;;2.50;0.43;;;;;;;;;;5133569;28;20176;-80
2023/11/03 08:03:07;;;;;;;2.93;0.60;;;;;;;;;;5115568;28;20226;-80
2023/11/03 08:05:33;;;;;;;5.33;0.80;;;;;;;;;;5133997;28;20218;-80
2023/11/03 08:08:01;;;;;;;3.27;0.47;;;;;;;;;;5133953;28;20602;-80
2023/11/03 08:10:27;;;;;;;3.63;0.30;;;;;;;;;;5133989;28;20893;-79
2023/11/03 08:12:54;;;;;;;3.70;0.60;;;;;;;;;;5133939;28;20471;-79
2023/11/03 08:15:20;;;;;;;4.90;0.20;;;;;;;;;;5133583;28;20822;-77
2023/11/03 08:17:46;;;;;;;4.50;0.40;;;;;;;;;;5133909;28;20442;-80
2023/11/03 08:20:15;;;;;;;7.77;0.47;;;;;;;;;;5133802;28;20843;-82
2023/11/03 08:22:41;;;;;;;5.00;1.10;;;;;;;;;;5133676;28;20843;-80
2023/11/03 08:25:07;;;;;;;2.50;0.40;;;;;;;;;;5133819;28;20486;-84
2023/11/03 08:27:33;;;;;;;8.13;0.70;;;;;;;;;;5133693;28;20505;-84
2023/11/03 08:30:01;;;;;;;2.20;0.50;;;;;;;;;;5133506;28;20401;-78
2023/11/03 08:32:27;;;;;;;1.60;0.40;;;;;;;;;;5133803;28;20765;-79
2023/11/03 08:34:52;;;;;;;1.40;0.30;;;;;;;;;;5133746;28;20446;-79
2023/11/03 08:37:21;;;;;;;5.23;1.00;;;;;;;;;;5134091;28;20412;-81
2023/11/03 08:39:47;;;;;;;4.13;0.60;;;;;;;;;;5133787;28;20403;-79
2023/11/03 08:42:15;;;;;;;0.60;0.20;;;;;;;;;;5133828;28;20526;-81
2023/11/03 08:44:41;;;;;;;3.30;0.33;;;;;;;;;;5133357;28;20183;-78
2023/11/03 08:47:07;;;;;;;2.00;0.20;;;;;;;;;;5133206;28;20828;-78
2023/11/03 08:49:34;;;;;;;1.47;0.20;;;;;;;;;;5133642;28;20414;-78
2023/11/03 08:52:00;;;;;;;2.77;0.43;;;;;;;;;;5133182;28;20542;-78
2023/11/03 08:54:26;;;;;;;1.30;0.23;;;;;;;;;;5133450;28;20835;-82
2023/11/03 08:56:53;;;;;;;3.57;0.73;;;;;;;;;;5133446;28;20414;-79
2023/11/03 08:59:19;;;;;;;5.97;0.40;;;;;;;;;;5127979;28;20457;-84
2023/11/03 09:01:45;;;;;;;6.10;0.80;;;;;;;;;;5115406;28;20448;-87
2023/11/03 09:04:11;;;;;;;4.43;0.37;;;;;;;;;;5133897;28;20414;-88
2023/11/03 09:06:37;;;;;;;1.77;0.40;;;;;;;;;;5116065;28;20424;-91
2023/11/03 09:09:04;;;;;;;2.50;0.40;;;;;;;;;;5133888;28;20426;-91
2023/11/03 09:11:30;;;;;;;1.97;0.40;;;;;;;;;;5118532;27;20457;-86
2023/11/03 09:13:59;;;;;;;3.60;0.30;;;;;;;;;;5137260;27;20470;-90
2023/11/03 09:16:25;;;;;;;1.73;0.30;;;;;;;;;;5137893;27;20414;-88
2023/11/03 09:18:52;;;;;;;2.10;0.40;;;;;;;;;;5138015;27;20793;-92
2023/11/03 09:21:18;;;;;;;1.67;0.33;;;;;;;;;;5103004;27;20465;-90
2023/11/03 09:23:44;;;;;;;10.20;1.90;;;;;;;;;;5137728;27;20406;-92
2023/11/03 09:26:10;;;;;;;4.37;0.30;;;;;;;;;;5138210;27;20415;-85
2023/11/03 09:28:39;;;;;;;3.47;0.97;;;;;;;;;;5136999;27;20476;-90
2023/11/03 09:31:05;;;;;;;2.57;0.47;;;;;;;;;;5137651;27;20410;-87
2023/11/03 09:33:31;;;;;;;3.30;0.50;;;;;;;;;;5138218;27;20461;-87
2023/11/03 09:35:57;;;;;;;3.10;0.33;;;;;;;;;;5138389;27;20407;-83
2023/11/03 09:38:23;;;;;;;4.30;0.40;;;;;;;;;;5137637;27;20410;-91
2023/11/03 09:40:50;;;;;;;4.33;0.40;;;;;;;;;;5150052;27;20482;-86
2023/11/03 09:43:17;;;;;;;4.93;0.63;;;;;;;;;;5121383;27;20783;-89
2023/11/03 09:45:43;;;;;;;2.40;0.50;;;;;;;;;;5141543;27;20418;-86
2023/11/03 09:48:11;;;;;;;1.53;0.30;;;;;;;;;;5144282;27;20479;-90
2023/11/03 09:50:36;;;;;;;3.93;0.20;;;;;;;;;;5139428;27;20798;-91
2023/11/03 09:53:05;;;;;;;2.43;0.47;;;;;;;;;;5137214;27;20413;-91
2023/11/03 09:55:31;;;;;;;2.73;0.30;;;;;;;;;;5136637;27;20915;-86
2023/11/03 09:58:05;;;;;;;3.47;0.40;;;;;;;;;;5136739;27;20409;-91
2023/11/03 10:00:31;;;;;;;4.10;0.23;;;;;;;;;;5136740;27;20413;-88
2023/11/03 10:02:57;;;;;;;4.47;0.43;;;;;;;;;;5137197;27;20412;-92
2023/11/03 10:05:25;;;;;;;2.60;0.60;;;;;;;;;;5137267;27;20416;-90
2023/11/03 10:08:00;;;;;;;6.70;0.50;;;;;;;;;;5136717;27;20875;-87
2023/11/03 10:10:26;;;;;;;7.60;0.40;;;;;;;;;;5136666;27;20432;-93
2023/11/03 10:12:52;;;;;;;4.87;0.67;;;;;;;;;;5118689;27;20428;-91
2023/11/03 10:15:18;;;;;;;2.00;0.40;;;;;;;;;;5136218;27;20423;-92
2023/11/03 10:17:45;;;;;;;3.50;0.83;;;;;;;;;;5125221;27;20179;-91
2023/11/03 10:20:12;;;;;;;3.47;0.67;;;;;;;;;;5135522;27;20519;-88
2023/11/03 10:22:39;;;;;;;3.07;0.50;;;;;;;;;;5134820;27;20422;-88
2023/11/03 10:25:06;;;;;;;1.90;0.37;;;;;;;;;;5118372;27;20415;-91
2023/11/03 10:27:32;;;;;;;2.00;0.33;;;;;;;;;;5136096;27;20451;-90
2023/11/03 10:29:59;;;;;;;6.70;1.03;;;;;;;;;;5117650;27;20433;-92
2023/11/03 10:32:25;;;;;;;1.97;0.30;;;;;;;;;;5136582;27;20407;-88
2023/11/03 10:34:53;;;;;;;5.47;0.73;;;;;;;;;;5136610;27;20509;-91
2023/11/03 10:37:21;;;;;;;3.87;0.37;;;;;;;;;;5136104;27;20408;-89
2023/11/03 10:39:47;;;;;;;2.30;0.20;;;;;;;;;;5117562;27;20435;-92
2023/11/03 10:42:14;;;;;;;3.57;0.30;;;;;;;;;;5136042;27;20414;-90
2023/11/03 10:44:41;;;;;;;2.00;0.30;;;;;;;;;;5135429;27;20178;-90
2023/11/03 10:47:07;;;;;;;2.53;0.20;;;;;;;;;;5135751;27;20891;-90
2023/11/03 10:49:36;;;;;;;1.20;0.37;;;;;;;;;;5117546;27;20427;-93
2023/11/03 10:52:07;;;;;;;2.17;0.30;;;;;;;;;;5135526;27;20762;-91
2023/11/03 10:54:42;;;;;;;1.77;0.33;;;;;;;;;;5121976;27;20434;-90
2023/11/03 10:57:10;;;;;;;3.00;0.30;;;;;;;;;;5117570;27;20439;-89
2023/11/03 10:59:39;;;;;;;1.57;0.63;;;;;;;;;;5114571;27;20440;-90
2023/11/03 11:02:10;;;;;;;3.80;0.40;;;;;;;;;;5108647;27;20425;-89
2023/11/03 11:04:42;;;;;;;3.67;0.93;;;;;;;;;;5116690;27;20420;-88
2023/11/03 11:07:14;;;;;;;7.47;1.47;;;;;;;;;;5135206;27;20462;-89
2023/11/03 11:09:42;;;;;;;3.10;0.70;;;;;;;;;;5135281;27;21078;-88
2023/11/03 11:12:09;;;;;;;2.60;0.60;;;;;;;;;;5134736;27;20440;-93
2023/11/03 11:14:48;;;;;;;1.70;0.63;;;;;;;;;;5134801;27;20452;-93
2023/11/03 11:17:34;;;;;;;2.10;0.40;;;;;;;;;;5135170;27;20392;-91
2023/11/03 11:20:03;;;;;;;3.83;0.57;;;;;;;;;;5116180;27;20431;-90
2023/11/03 11:22:30;;;;;;;3.20;0.50;;;;;;;;;;5116909;27;20847;-90
2023/11/03 11:25:01;;;;;;;7.10;0.93;;;;;;;;;;5116787;27;20420;-92
2023/11/03 11:27:27;;;;;;;5.37;0.70;;;;;;;;;;5135180;27;20440;-91
2023/11/03 11:30:12;;;;;;;1.63;0.30;;;;;;;;;;5134848;27;20408;-91
2023/11/03 11:32:38;;;;;;;1.80;0.30;;;;;;;;;;5134521;27;20816;-91
2023/11/03 11:35:10;;;;;;;2.70;0.30;;;;;;;;;;5135328;27;20444;-91
2023/11/03 11:37:37;;;;;;;4.73;0.87;;;;;;;;;;5134801;27;20417;-88
2023/11/03 11:40:04;;;;;;;4.20;0.67;;;;;;;;;;5116701;27;20524;-88
2023/11/03 11:42:31;;;;;;;3.87;0.40;;;;;;;;;;5134821;27;20401;-90
2023/11/03 11:44:59;;;;;;;6.20;0.50;;;;;;;;;;5134422;27;20500;-89
2023/11/03 11:47:27;;;;;;;2.83;0.33;;;;;;;;;;5134149;27;20513;-87
2023/11/03 11:49:56;;;;;;;2.37;0.20;;;;;;;;;;5115891;27;20420;-86
2023/11/03 11:52:24;;;;;;;3.10;0.43;;;;;;;;;;5134058;27;20509;-87
2023/11/03 11:54:51;;;;;;;3.00;0.70;;;;;;;;;;5134075;27;20402;-87
2023/11/03 11:57:17;;;;;;;4.07;0.70;;;;;;;;;;5134020;27;20460;-86
2023/11/03 11:59:46;;;;;;;3.07;0.80;;;;;;;;;;5132800;27;20943;-85
2023/11/03 12:02:12;;;;;;;6.67;1.03;;;;;;;;;;5134290;27;20416;-90
2023/11/03 12:04:39;;;;;;;2.67;0.50;;;;;;;;;;5134629;28;21103;-89
2023/11/03 12:07:06;;;;;;;1.90;0.50;;;;;;;;;;5134714;28;20966;-91
2023/11/03 12:09:36;;;;;;;3.40;0.40;;;;;;;;;;5133846;28;20748;-87
2023/11/03 12:12:03;;;;;;;2.07;0.50;;;;;;;;;;5132666;27;21138;-84
2023/11/03 12:14:28;;;;;;;3.13;0.43;;;;;;;;;;5116142;28;20422;-90
2023/11/03 12:16:55;;;;;;;3.00;0.53;;;;;;;;;;5116793;28;20428;-88
2023/11/03 12:19:21;;;;;;;3.37;0.67;;;;;;;;;;5116250;28;20942;-90
2023/11/03 12:21:53;;;;;;;8.27;0.63;;;;;;;;;;5134739;28;20878;-87
2023/11/03 12:24:19;;;;;;;4.30;0.57;;;;;;;;;;5134486;28;20411;-91
2023/11/03 12:26:45;;;;;;;2.80;0.40;;;;;;;;;;5134609;28;20465;-91
2023/11/03 12:29:27;;;;;;;5.10;0.47;;;;;;;;;;5134218;28;20410;-91
2023/11/03 12:31:54;;;;;;;1.77;0.90;;;;;;;;;;5134779;28;20452;-88
2023/11/03 12:34:20;;;;;;;4.10;1.80;;;;;;;;;;5134539;28;20441;-88
2023/11/03 12:36:47;;;;;;;2.63;0.53;;;;;;;;;;5134025;28;20802;-88
2023/11/03 12:39:13;;;;;;;3.43;0.50;;;;;;;;;;5133603;28;20465;-88
2023/11/03 12:41:41;;;;;;;2.50;0.80;;;;;;;;;;5133646;28;20405;-87
2023/11/03 12:44:07;;;;;;;6.17;0.93;;;;;;;;;;5114130;27;20426;-87
2023/11/03 12:46:36;;;;;;;6.60;1.43;;;;;;;;;;5137009;27;20404;-89
2023/11/03 12:49:07;;;;;;;3.33;0.40;;;;;;;;;;5137422;27;20219;-89
2023/11/03 12:51:32;;;;;;;8.87;1.00;;;;;;;;;;5137732;27;20393;-87
2023/11/03 12:53:58;;;;;;;5.00;1.27;;;;;;;;;;5125864;27;20530;-88
2023/11/03 12:56:24;;;;;;;5.20;0.97;;;;;;;;;;5116802;27;20435;-90
2023/11/03 12:58:52;;;;;;;5.90;0.80;;;;;;;;;;5116810;28;20438;-90
2023/11/03 13:01:20;;;;;;;3.57;0.80;;;;;;;;;;5117547;28;20413;-90
2023/11/03 13:03:47;;;;;;;4.87;0.90;;;;;;;;;;5119954;27;20470;-89
2023/11/03 13:06:13;;;;;;;4.17;1.07;;;;;;;;;;5127850;27;20412;-89
2023/11/03 13:08:41;;;;;;;3.20;0.90;;;;;;;;;;5132080;27;20468;-90
2023/11/03 13:11:07;;;;;;;1.40;0.50;;;;;;;;;;5102431;27;20445;-89
2023/11/03 13:13:33;;;;;;;4.40;1.20;;;;;;;;;;5137191;27;20462;-92
2023/11/03 13:16:01;;;;;;;4.53;0.97;;;;;;;;;;5110730;27;20417;-91
2023/11/03 13:18:26;;;;;;;3.50;0.80;;;;;;;;;;5116760;28;20428;-90
2023/11/03 13:20:52;;;;;;;3.63;1.00;;;;;;;;;;5122236;27;20416;-89
2023/11/03 13:23:18;;;;;;;6.00;0.83;;;;;;;;;;5121987;27;20433;-90
2023/11/03 13:25:44;;;;;;;3.90;1.33;;;;;;;;;;5132991;27;20404;-90
2023/11/03 13:28:10;;;;;;;8.20;0.90;;;;;;;;;;5115616;27;20474;-89
2023/11/03 13:30:36;;;;;;;4.90;1.40;;;;;;;;;;5109922;27;20767;-89
2023/11/03 13:33:02;;;;;;;3.33;0.80;;;;;;;;;;5131850;27;20427;-90
2023/11/03 13:35:29;;;;;;;7.33;1.97;;;;;;;;;;5120361;27;20448;-90
2023/11/03 13:37:55;;;;;;;3.90;1.00;;;;;;;;;;5118052;27;20452;-90
2023/11/03 13:40:21;;;;;;;4.57;0.93;;;;;;;;;;5123871;27;20417;-90
2023/11/03 13:42:48;;;;;;;5.93;1.53;;;;;;;;;;5105795;28;20429;-87
2023/11/03 13:45:14;;;;;;;4.63;0.57;;;;;;;;;;5120536;27;20474;-90
2023/11/03 13:47:40;;;;;;;4.20;1.17;;;;;;;;;;5125216;27;20520;-87
2023/11/03 13:50:11;;;;;;;5.37;1.13;;;;;;;;;;5115806;28;20411;-90
2023/11/03 13:52:37;;;;;;;2.93;1.03;;;;;;;;;;5108614;27;20413;-90
2023/11/03 13:55:04;;;;;;;6.57;1.27;;;;;;;;;;5123919;27;20416;-92
2023/11/03 13:57:31;;;;;;;5.80;1.47;;;;;;;;;;5129250;27;20171;-87
2023/11/03 13:59:57;;;;;;;7.30;1.20;;;;;;;;;;5128819;27;20422;-88
2023/11/03 14:02:24;;;;;;;5.80;0.87;;;;;;;;;;5135116;27;20424;-88
2023/11/03 14:04:50;;;;;;;5.77;0.80;;;;;;;;;;5118020;27;20401;-87
2023/11/03 14:07:16;;;;;;;5.60;0.90;;;;;;;;;;5114003;27;20463;-87
2023/11/03 14:09:44;;;;;;;3.37;1.00;;;;;;;;;;5112897;27;20194;-89
2023/11/03 14:12:10;;;;;;;4.33;2.03;;;;;;;;;;5115922;28;20474;-88
2023/11/03 14:14:38;;;;;;;9.30;1.10;;;;;;;;;;5115088;28;20401;-90
2023/11/03 14:17:06;;;;;;;3.80;0.80;;;;;;;;;;5106428;27;20455;-90
2023/11/03 14:19:33;;;;;;;3.10;0.87;;;;;;;;;;5097262;28;20476;-90
2023/11/03 14:21:59;;;;;;;5.07;1.00;;;;;;;;;;5097408;28;20509;-90
2023/11/03 14:24:24;;;;;;;4.13;1.23;;;;;;;;;;5118464;27;20503;-91
2023/11/03 14:26:51;;;;;;;5.20;0.90;;;;;;;;;;5124535;27;20186;-90
2023/11/03 14:29:17;;;;;;;5.10;1.40;;;;;;;;;;5116330;27;20823;-87
2023/11/03 14:31:43;;;;;;;5.00;1.03;;;;;;;;;;5112128;27;20420;-92
2023/11/03 14:34:16;;;;;;;9.20;1.60;;;;;;;;;;5135457;27;20424;-90
2023/11/03 14:36:43;;;;;;;9.27;1.60;;;;;;;;;;5124991;27;20429;-90
2023/11/03 14:39:15;;;;;;;5.80;1.40;;;;;;;;;;5115119;28;20818;-90
2023/11/03 14:41:42;;;;;;;5.33;1.73;;;;;;;;;;5113631;28;20417;-88